sensor_id;sensor_type;location;lat;lon;timestamp;temperature;humidity
8715;DHT22;4394;51.208;8.904;2023-01-13T00:02:15;9.60;99.90
8715;DHT22;4394;51.208;8.904;2023-01-13T00:05:04;9.60;99.90
8715;DHT22;4394;51.208;8.904;2023-01-13T00:07:54;9.60;99.90
8715;DHT22;4394;51.208;8.904;2023-01-13T00:10:45;9.60;99.90
8715;DHT22;4394;51.208;8.904;2023-01-13T00:13:34;9.80;99.90
8715;DHT22;4394;51.208;8.904;2023-01-13T00:16:23;9.60;99.90
8715;DHT22;4394;51.208;8.904;2023-01-13T00:19:12;9.60;99.90
8715;DHT22;4394;51.208;8.904;2023-01-13T00:22:00;9.60;99.90
8715;DHT22;4394;51.208;8.904;2023-01-13T00:24:49;9.60;99.90
8715;DHT22;4394;51.208;8.904;2023-01-13T00:27:38;9.60;99.90
8715;DHT22;4394;51.208;8.904;2023-01-13T00:30:26;9.60;99.90
8715;DHT22;4394;51.208;8.904;2023-01-13T00:33:14;9.60;99.90
8715;DHT22;4394;51.208;8.904;2023-01-13T00:36:04;9.60;99.90
8715;DHT22;4394;51.208;8.904;2023-01-13T00:38:52;9.60;99.90
8715;DHT22;4394;51.208;8.904;2023-01-13T00:41:42;9.60;99.90
8715;DHT22;4394;51.208;8.904;2023-01-13T00:44:46;9.60;99.90
8715;DHT22;4394;51.208;8.904;2023-01-13T00:47:35;9.60;99.90
8715;DHT22;4394;51.208;8.904;2023-01-13T00:50:23;9.60;99.90
8715;DHT22;4394;51.208;8.904;2023-01-13T00:53:11;9.60;99.90
8715;DHT22;4394;51.208;8.904;2023-01-13T00:56:01;9.50;99.90
8715;DHT22;4394;51.208;8.904;2023-01-13T00:58:51;9.60;99.90
8715;DHT22;4394;51.208;8.904;2023-01-13T01:01:40;9.50;99.90
8715;DHT22;4394;51.208;8.904;2023-01-13T01:04:28;9.60;99.90
8715;DHT22;4394;51.208;8.904;2023-01-13T01:07:16;9.60;99.90
8715;DHT22;4394;51.208;8.904;2023-01-13T01:10:05;9.60;99.90
8715;DHT22;4394;51.208;8.904;2023-01-13T01:12:53;9.60;99.90
8715;DHT22;4394;51.208;8.904;2023-01-13T01:15:43;9.70;99.90
8715;DHT22;4394;51.208;8.904;2023-01-13T01:18:34;9.70;99.90
8715;DHT22;4394;51.208;8.904;2023-01-13T01:21:25;9.70;99.90
8715;DHT22;4394;51.208;8.904;2023-01-13T01:24:13;9.60;99.90
8715;DHT22;4394;51.208;8.904;2023-01-13T01:27:02;9.70;99.90
8715;DHT22;4394;51.208;8.904;2023-01-13T01:29:50;9.70;99.90
8715;DHT22;4394;51.208;8.904;2023-01-13T01:32:40;9.70;99.90
8715;DHT22;4394;51.208;8.904;2023-01-13T01:35:28;9.70;99.90
8715;DHT22;4394;51.208;8.904;2023-01-13T01:38:16;9.70;99.90
8715;DHT22;4394;51.208;8.904;2023-01-13T01:41:05;9.70;99.90
8715;DHT22;4394;51.208;8.904;2023-01-13T01:43:54;9.70;99.90
8715;DHT22;4394;51.208;8.904;2023-01-13T01:46:53;9.70;99.90
8715;DHT22;4394;51.208;8.904;2023-01-13T01:49:45;9.70;99.90
8715;DHT22;4394;51.208;8.904;2023-01-13T01:52:35;9.70;99.90
8715;DHT22;4394;51.208;8.904;2023-01-13T01:55:27;9.70;99.90
8715;DHT22;4394;51.208;8.904;2023-01-13T01:58:18;9.80;99.90
8715;DHT22;4394;51.208;8.904;2023-01-13T02:01:08;9.80;99.90
8715;DHT22;4394;51.208;8.904;2023-01-13T02:04:08;9.80;99.90
8715;DHT22;4394;51.208;8.904;2023-01-13T02:07:00;9.80;99.90
8715;DHT22;4394;51.208;8.904;2023-01-13T02:09:49;9.70;99.90
8715;DHT22;4394;51.208;8.904;2023-01-13T02:12:39;9.70;99.90
8715;DHT22;4394;51.208;8.904;2023-01-13T02:15:34;9.80;99.90
8715;DHT22;4394;51.208;8.904;2023-01-13T02:18:37;9.80;99.90
8715;DHT22;4394;51.208;8.904;2023-01-13T02:21:45;9.80;99.90
8715;DHT22;4394;51.208;8.904;2023-01-13T02:28:02;9.90;99.90
8715;DHT22;4394;51.208;8.904;2023-01-13T02:30:57;9.90;99.90
8715;DHT22;4394;51.208;8.904;2023-01-13T02:34:08;9.90;99.90
8715;DHT22;4394;51.208;8.904;2023-01-13T02:37:00;9.80;99.90
8715;DHT22;4394;51.208;8.904;2023-01-13T02:39:55;9.80;99.90
8715;DHT22;4394;51.208;8.904;2023-01-13T02:42:48;9.70;99.90
8715;DHT22;4394;51.208;8.904;2023-01-13T02:46:00;9.40;99.90
8715;DHT22;4394;51.208;8.904;2023-01-13T02:48:51;9.10;99.90
8715;DHT22;4394;51.208;8.904;2023-01-13T02:51:43;8.90;99.90
8715;DHT22;4394;51.208;8.904;2023-01-13T02:54:33;8.80;99.90
8715;DHT22;4394;51.208;8.904;2023-01-13T02:57:24;8.60;99.90
8715;DHT22;4394;51.208;8.904;2023-01-13T03:00:14;8.50;99.90
8715;DHT22;4394;51.208;8.904;2023-01-13T03:03:04;8.30;99.90
8715;DHT22;4394;51.208;8.904;2023-01-13T03:05:54;8.30;99.90
8715;DHT22;4394;51.208;8.904;2023-01-13T03:08:49;8.30;99.90
8715;DHT22;4394;51.208;8.904;2023-01-13T03:11:48;8.30;99.90
8715;DHT22;4394;51.208;8.904;2023-01-13T03:14:41;8.20;99.90
8715;DHT22;4394;51.208;8.904;2023-01-13T03:17:39;8.10;99.90
8715;DHT22;4394;51.208;8.904;2023-01-13T03:20:33;8.00;99.90
8715;DHT22;4394;51.208;8.904;2023-01-13T03:23:28;8.20;99.90
8715;DHT22;4394;51.208;8.904;2023-01-13T03:26:26;8.00;99.90
8715;DHT22;4394;51.208;8.904;2023-01-13T03:29:19;8.00;99.90
8715;DHT22;4394;51.208;8.904;2023-01-13T03:32:11;7.90;99.90
8715;DHT22;4394;51.208;8.904;2023-01-13T03:35:06;7.90;99.90
8715;DHT22;4394;51.208;8.904;2023-01-13T03:38:01;8.00;99.90
8715;DHT22;4394;51.208;8.904;2023-01-13T03:40:53;7.90;99.90
8715;DHT22;4394;51.208;8.904;2023-01-13T03:43:45;7.90;99.90
8715;DHT22;4394;51.208;8.904;2023-01-13T03:47:00;7.90;99.90
8715;DHT22;4394;51.208;8.904;2023-01-13T03:49:53;7.90;99.90
8715;DHT22;4394;51.208;8.904;2023-01-13T03:52:46;7.90;99.90
8715;DHT22;4394;51.208;8.904;2023-01-13T03:55:39;7.80;99.90
8715;DHT22;4394;51.208;8.904;2023-01-13T03:58:30;7.80;99.90
8715;DHT22;4394;51.208;8.904;2023-01-13T04:01:21;7.90;99.90
8715;DHT22;4394;51.208;8.904;2023-01-13T04:04:16;7.90;99.90
8715;DHT22;4394;51.208;8.904;2023-01-13T04:07:14;7.90;99.90
8715;DHT22;4394;51.208;8.904;2023-01-13T04:10:07;7.80;99.90
8715;DHT22;4394;51.208;8.904;2023-01-13T04:13:00;7.70;99.90
8715;DHT22;4394;51.208;8.904;2023-01-13T04:15:51;7.70;99.90
8715;DHT22;4394;51.208;8.904;2023-01-13T04:18:39;7.60;99.90
8715;DHT22;4394;51.208;8.904;2023-01-13T04:21:28;7.60;99.90
8715;DHT22;4394;51.208;8.904;2023-01-13T04:24:16;7.70;99.90
8715;DHT22;4394;51.208;8.904;2023-01-13T04:27:04;7.60;99.90
8715;DHT22;4394;51.208;8.904;2023-01-13T04:29:53;7.70;99.90
8715;DHT22;4394;51.208;8.904;2023-01-13T04:32:41;7.60;99.90
8715;DHT22;4394;51.208;8.904;2023-01-13T04:35:29;7.60;99.90
8715;DHT22;4394;51.208;8.904;2023-01-13T04:38:19;7.60;99.90
8715;DHT22;4394;51.208;8.904;2023-01-13T04:41:08;7.60;99.90
8715;DHT22;4394;51.208;8.904;2023-01-13T04:43:56;7.50;99.90
8715;DHT22;4394;51.208;8.904;2023-01-13T04:46:46;7.50;99.90
8715;DHT22;4394;51.208;8.904;2023-01-13T04:49:34;7.60;99.90
8715;DHT22;4394;51.208;8.904;2023-01-13T04:52:22;7.60;99.90
8715;DHT22;4394;51.208;8.904;2023-01-13T04:55:10;7.60;99.90
8715;DHT22;4394;51.208;8.904;2023-01-13T04:58:01;7.60;99.90
8715;DHT22;4394;51.208;8.904;2023-01-13T05:00:50;7.50;99.90
8715;DHT22;4394;51.208;8.904;2023-01-13T05:03:40;7.50;99.90
8715;DHT22;4394;51.208;8.904;2023-01-13T05:06:29;7.50;99.90
8715;DHT22;4394;51.208;8.904;2023-01-13T05:09:17;7.40;99.90
8715;DHT22;4394;51.208;8.904;2023-01-13T05:12:05;7.50;99.90
8715;DHT22;4394;51.208;8.904;2023-01-13T05:15:12;7.50;99.90
8715;DHT22;4394;51.208;8.904;2023-01-13T05:18:19;7.50;99.90
8715;DHT22;4394;51.208;8.904;2023-01-13T05:21:08;7.70;99.90
8715;DHT22;4394;51.208;8.904;2023-01-13T05:24:16;7.60;99.90
8715;DHT22;4394;51.208;8.904;2023-01-13T05:27:27;7.50;99.90
8715;DHT22;4394;51.208;8.904;2023-01-13T05:30:16;7.50;99.90
8715;DHT22;4394;51.208;8.904;2023-01-13T05:33:04;7.40;99.90
8715;DHT22;4394;51.208;8.904;2023-01-13T05:35:52;7.40;99.90
8715;DHT22;4394;51.208;8.904;2023-01-13T05:38:42;7.30;99.90
8715;DHT22;4394;51.208;8.904;2023-01-13T05:41:30;7.30;99.90
8715;DHT22;4394;51.208;8.904;2023-01-13T05:44:35;7.30;99.90
8715;DHT22;4394;51.208;8.904;2023-01-13T05:47:23;7.30;99.90
8715;DHT22;4394;51.208;8.904;2023-01-13T05:50:11;7.30;99.90
8715;DHT22;4394;51.208;8.904;2023-01-13T05:52:59;7.30;99.90
8715;DHT22;4394;51.208;8.904;2023-01-13T05:55:49;7.40;99.90
8715;DHT22;4394;51.208;8.904;2023-01-13T05:58:37;7.30;99.90
8715;DHT22;4394;51.208;8.904;2023-01-13T06:01:25;7.40;99.90
8715;DHT22;4394;51.208;8.904;2023-01-13T06:04:13;7.40;99.90
8715;DHT22;4394;51.208;8.904;2023-01-13T06:07:01;7.40;99.90
8715;DHT22;4394;51.208;8.904;2023-01-13T06:09:50;7.40;99.90
8715;DHT22;4394;51.208;8.904;2023-01-13T06:12:39;7.30;99.90
8715;DHT22;4394;51.208;8.904;2023-01-13T06:15:27;7.30;99.90
8715;DHT22;4394;51.208;8.904;2023-01-13T06:18:16;7.30;99.90
8715;DHT22;4394;51.208;8.904;2023-01-13T06:21:04;7.30;99.90
8715;DHT22;4394;51.208;8.904;2023-01-13T06:23:52;7.30;99.90
8715;DHT22;4394;51.208;8.904;2023-01-13T06:26:40;7.30;99.90
8715;DHT22;4394;51.208;8.904;2023-01-13T06:29:30;7.20;99.90
8715;DHT22;4394;51.208;8.904;2023-01-13T06:32:20;7.30;99.90
8715;DHT22;4394;51.208;8.904;2023-01-13T06:35:13;7.30;99.90
8715;DHT22;4394;51.208;8.904;2023-01-13T06:38:04;7.30;99.90
8715;DHT22;4394;51.208;8.904;2023-01-13T06:40:54;7.30;99.90
8715;DHT22;4394;51.208;8.904;2023-01-13T06:43:42;7.20;99.90
8715;DHT22;4394;51.208;8.904;2023-01-13T06:46:30;7.30;99.90
8715;DHT22;4394;51.208;8.904;2023-01-13T06:49:19;7.20;99.90
8715;DHT22;4394;51.208;8.904;2023-01-13T06:52:07;7.20;99.90
8715;DHT22;4394;51.208;8.904;2023-01-13T06:54:55;7.20;99.90
8715;DHT22;4394;51.208;8.904;2023-01-13T06:57:48;7.20;99.90
8715;DHT22;4394;51.208;8.904;2023-01-13T07:00:36;7.20;99.90
8715;DHT22;4394;51.208;8.904;2023-01-13T07:03:25;7.20;99.90
8715;DHT22;4394;51.208;8.904;2023-01-13T07:06:13;7.20;99.90
8715;DHT22;4394;51.208;8.904;2023-01-13T07:09:01;7.20;99.90
8715;DHT22;4394;51.208;8.904;2023-01-13T07:11:52;7.20;99.90
8715;DHT22;4394;51.208;8.904;2023-01-13T07:14:40;7.20;99.90
8715;DHT22;4394;51.208;8.904;2023-01-13T07:17:46;7.20;99.90
8715;DHT22;4394;51.208;8.904;2023-01-13T07:20:35;7.30;99.90
8715;DHT22;4394;51.208;8.904;2023-01-13T07:23:24;7.30;99.90
8715;DHT22;4394;51.208;8.904;2023-01-13T07:26:13;7.30;99.90
8715;DHT22;4394;51.208;8.904;2023-01-13T07:29:01;7.20;99.90
8715;DHT22;4394;51.208;8.904;2023-01-13T07:31:49;7.20;99.90
8715;DHT22;4394;51.208;8.904;2023-01-13T07:34:38;7.20;99.90
8715;DHT22;4394;51.208;8.904;2023-01-13T07:37:27;7.30;99.90
8715;DHT22;4394;51.208;8.904;2023-01-13T07:40:15;7.20;99.90
8715;DHT22;4394;51.208;8.904;2023-01-13T07:43:03;7.20;99.90
8715;DHT22;4394;51.208;8.904;2023-01-13T07:46:09;7.20;99.90
8715;DHT22;4394;51.208;8.904;2023-01-13T07:48:57;7.20;99.90
8715;DHT22;4394;51.208;8.904;2023-01-13T07:51:45;7.30;99.90
8715;DHT22;4394;51.208;8.904;2023-01-13T07:54:34;7.30;99.90
8715;DHT22;4394;51.208;8.904;2023-01-13T07:57:27;7.30;99.90
8715;DHT22;4394;51.208;8.904;2023-01-13T08:00:15;7.30;99.90
8715;DHT22;4394;51.208;8.904;2023-01-13T08:03:04;7.20;99.90
8715;DHT22;4394;51.208;8.904;2023-01-13T08:05:52;7.20;99.90
8715;DHT22;4394;51.208;8.904;2023-01-13T08:08:40;7.20;99.90
8715;DHT22;4394;51.208;8.904;2023-01-13T08:11:29;7.20;99.90
8715;DHT22;4394;51.208;8.904;2023-01-13T08:14:17;7.10;99.90
8715;DHT22;4394;51.208;8.904;2023-01-13T08:17:06;7.10;99.90
8715;DHT22;4394;51.208;8.904;2023-01-13T08:19:54;7.10;99.90
8715;DHT22;4394;51.208;8.904;2023-01-13T08:22:42;7.10;99.90
8715;DHT22;4394;51.208;8.904;2023-01-13T08:25:31;7.10;99.90
8715;DHT22;4394;51.208;8.904;2023-01-13T08:28:20;7.10;99.90
8715;DHT22;4394;51.208;8.904;2023-01-13T08:31:12;7.00;99.90
8715;DHT22;4394;51.208;8.904;2023-01-13T08:34:01;7.20;99.90
8715;DHT22;4394;51.208;8.904;2023-01-13T08:36:50;7.10;99.90
8715;DHT22;4394;51.208;8.904;2023-01-13T08:39:38;7.10;99.90
8715;DHT22;4394;51.208;8.904;2023-01-13T08:42:26;7.20;99.90
8715;DHT22;4394;51.208;8.904;2023-01-13T08:45:15;7.20;99.90
8715;DHT22;4394;51.208;8.904;2023-01-13T08:48:03;7.30;99.90
8715;DHT22;4394;51.208;8.904;2023-01-13T08:50:52;7.30;99.90
8715;DHT22;4394;51.208;8.904;2023-01-13T08:53:40;7.30;99.90
8715;DHT22;4394;51.208;8.904;2023-01-13T08:56:29;7.30;99.90
8715;DHT22;4394;51.208;8.904;2023-01-13T08:59:21;7.40;99.90
8715;DHT22;4394;51.208;8.904;2023-01-13T09:02:13;7.30;99.90
8715;DHT22;4394;51.208;8.904;2023-01-13T09:05:01;7.30;99.90
8715;DHT22;4394;51.208;8.904;2023-01-13T09:07:52;7.30;99.90
8715;DHT22;4394;51.208;8.904;2023-01-13T09:10:40;7.30;99.90
8715;DHT22;4394;51.208;8.904;2023-01-13T09:13:28;7.30;99.90
8715;DHT22;4394;51.208;8.904;2023-01-13T09:16:15;7.30;99.90
8715;DHT22;4394;51.208;8.904;2023-01-13T09:19:05;7.30;99.90
8715;DHT22;4394;51.208;8.904;2023-01-13T09:21:53;7.30;99.90
8715;DHT22;4394;51.208;8.904;2023-01-13T09:24:41;7.30;99.90
8715;DHT22;4394;51.208;8.904;2023-01-13T09:27:29;7.40;99.90
8715;DHT22;4394;51.208;8.904;2023-01-13T09:30:17;7.40;99.90
8715;DHT22;4394;51.208;8.904;2023-01-13T09:33:05;7.40;99.90
8715;DHT22;4394;51.208;8.904;2023-01-13T09:36:12;7.40;99.90
8715;DHT22;4394;51.208;8.904;2023-01-13T09:39:00;7.40;99.90
8715;DHT22;4394;51.208;8.904;2023-01-13T09:41:51;7.40;99.90
8715;DHT22;4394;51.208;8.904;2023-01-13T09:45:01;7.40;99.90
8715;DHT22;4394;51.208;8.904;2023-01-13T09:47:55;7.40;99.90
8715;DHT22;4394;51.208;8.904;2023-01-13T09:50:50;7.40;99.90
8715;DHT22;4394;51.208;8.904;2023-01-13T09:53:46;7.40;99.90
8715;DHT22;4394;51.208;8.904;2023-01-13T09:56:35;7.40;99.90
8715;DHT22;4394;51.208;8.904;2023-01-13T09:59:25;7.50;99.90
8715;DHT22;4394;51.208;8.904;2023-01-13T10:02:36;7.50;99.90
8715;DHT22;4394;51.208;8.904;2023-01-13T10:05:33;7.50;99.90
8715;DHT22;4394;51.208;8.904;2023-01-13T10:08:23;7.50;99.90
8715;DHT22;4394;51.208;8.904;2023-01-13T10:11:15;7.60;99.90
8715;DHT22;4394;51.208;8.904;2023-01-13T10:14:25;7.60;99.90
8715;DHT22;4394;51.208;8.904;2023-01-13T10:17:20;7.70;99.90
8715;DHT22;4394;51.208;8.904;2023-01-13T10:20:15;7.70;99.90
8715;DHT22;4394;51.208;8.904;2023-01-13T10:23:13;7.70;99.90
8715;DHT22;4394;51.208;8.904;2023-01-13T10:26:08;7.80;99.90
8715;DHT22;4394;51.208;8.904;2023-01-13T10:29:00;7.80;99.90
8715;DHT22;4394;51.208;8.904;2023-01-13T10:31:49;7.80;99.90
8715;DHT22;4394;51.208;8.904;2023-01-13T10:34:45;7.70;99.90
8715;DHT22;4394;51.208;8.904;2023-01-13T10:37:34;7.80;99.90
8715;DHT22;4394;51.208;8.904;2023-01-13T10:40:22;7.80;99.90
8715;DHT22;4394;51.208;8.904;2023-01-13T10:43:11;7.80;99.90
8715;DHT22;4394;51.208;8.904;2023-01-13T10:46:03;7.90;99.90
8715;DHT22;4394;51.208;8.904;2023-01-13T10:48:53;7.80;99.90
8715;DHT22;4394;51.208;8.904;2023-01-13T10:51:43;7.80;99.90
8715;DHT22;4394;51.208;8.904;2023-01-13T10:54:49;7.80;99.90
8715;DHT22;4394;51.208;8.904;2023-01-13T10:57:37;7.80;99.90
8715;DHT22;4394;51.208;8.904;2023-01-13T11:00:27;7.90;99.90
8715;DHT22;4394;51.208;8.904;2023-01-13T11:03:19;7.90;99.90
8715;DHT22;4394;51.208;8.904;2023-01-13T11:06:08;7.90;99.90
8715;DHT22;4394;51.208;8.904;2023-01-13T11:09:17;7.90;99.90
8715;DHT22;4394;51.208;8.904;2023-01-13T11:12:28;7.90;99.90
8715;DHT22;4394;51.208;8.904;2023-01-13T11:15:19;7.90;99.90
8715;DHT22;4394;51.208;8.904;2023-01-13T11:18:15;7.80;99.90
8715;DHT22;4394;51.208;8.904;2023-01-13T11:21:11;7.80;99.90
8715;DHT22;4394;51.208;8.904;2023-01-13T11:24:10;7.70;99.90
8715;DHT22;4394;51.208;8.904;2023-01-13T11:27:02;7.70;99.90
8715;DHT22;4394;51.208;8.904;2023-01-13T11:29:59;7.70;99.90
8715;DHT22;4394;51.208;8.904;2023-01-13T11:33:19;7.70;99.90
8715;DHT22;4394;51.208;8.904;2023-01-13T11:36:17;7.70;99.90
8715;DHT22;4394;51.208;8.904;2023-01-13T11:39:14;7.80;99.90
8715;DHT22;4394;51.208;8.904;2023-01-13T11:42:11;7.90;99.90
8715;DHT22;4394;51.208;8.904;2023-01-13T11:45:16;7.90;99.90
8715;DHT22;4394;51.208;8.904;2023-01-13T11:48:12;7.90;99.90
8715;DHT22;4394;51.208;8.904;2023-01-13T11:51:05;8.00;99.90
8715;DHT22;4394;51.208;8.904;2023-01-13T11:57:41;7.90;99.90
8715;DHT22;4394;51.208;8.904;2023-01-13T12:00:39;7.90;99.90
8715;DHT22;4394;51.208;8.904;2023-01-13T12:03:32;7.90;99.90
8715;DHT22;4394;51.208;8.904;2023-01-13T12:06:28;7.90;99.90
8715;DHT22;4394;51.208;8.904;2023-01-13T12:09:36;8.00;99.90
8715;DHT22;4394;51.208;8.904;2023-01-13T12:12:36;8.10;99.90
8715;DHT22;4394;51.208;8.904;2023-01-13T12:16:01;8.10;99.90
8715;DHT22;4394;51.208;8.904;2023-01-13T12:19:04;8.10;99.90
8715;DHT22;4394;51.208;8.904;2023-01-13T12:22:05;8.10;99.90
8715;DHT22;4394;51.208;8.904;2023-01-13T12:25:01;8.10;99.90
8715;DHT22;4394;51.208;8.904;2023-01-13T12:27:55;8.10;99.90
8715;DHT22;4394;51.208;8.904;2023-01-13T12:30:48;8.00;99.90
8715;DHT22;4394;51.208;8.904;2023-01-13T12:33:58;8.00;99.90
8715;DHT22;4394;51.208;8.904;2023-01-13T12:36:53;8.00;99.90
8715;DHT22;4394;51.208;8.904;2023-01-13T12:39:52;8.00;99.90
8715;DHT22;4394;51.208;8.904;2023-01-13T12:42:49;8.00;99.90
8715;DHT22;4394;51.208;8.904;2023-01-13T12:49:27;7.70;99.90
8715;DHT22;4394;51.208;8.904;2023-01-13T12:52:15;7.50;99.90
8715;DHT22;4394;51.208;8.904;2023-01-13T12:55:13;7.50;99.90
8715;DHT22;4394;51.208;8.904;2023-01-13T12:58:15;7.50;99.90
8715;DHT22;4394;51.208;8.904;2023-01-13T13:01:10;7.60;99.90
8715;DHT22;4394;51.208;8.904;2023-01-13T13:04:07;7.60;99.90
8715;DHT22;4394;51.208;8.904;2023-01-13T13:07:05;7.70;99.90
8715;DHT22;4394;51.208;8.904;2023-01-13T13:09:58;7.80;99.90
8715;DHT22;4394;51.208;8.904;2023-01-13T13:12:53;7.90;99.90
8715;DHT22;4394;51.208;8.904;2023-01-13T13:19:47;8.00;99.90
8715;DHT22;4394;51.208;8.904;2023-01-13T13:22:37;8.00;99.90
8715;DHT22;4394;51.208;8.904;2023-01-13T13:25:29;8.00;99.90
8715;DHT22;4394;51.208;8.904;2023-01-13T13:28:18;8.00;99.90
8715;DHT22;4394;51.208;8.904;2023-01-13T13:31:32;8.00;99.90
8715;DHT22;4394;51.208;8.904;2023-01-13T13:34:29;8.10;99.90
8715;DHT22;4394;51.208;8.904;2023-01-13T13:37:34;8.00;99.90
8715;DHT22;4394;51.208;8.904;2023-01-13T13:40:46;8.10;99.90
8715;DHT22;4394;51.208;8.904;2023-01-13T13:43:52;8.10;99.90
8715;DHT22;4394;51.208;8.904;2023-01-13T13:47:00;8.10;99.90
8715;DHT22;4394;51.208;8.904;2023-01-13T13:49:50;8.10;99.90
8715;DHT22;4394;51.208;8.904;2023-01-13T13:52:43;8.10;99.90
8715;DHT22;4394;51.208;8.904;2023-01-13T13:55:37;8.10;99.90
8715;DHT22;4394;51.208;8.904;2023-01-13T13:58:26;8.10;99.90
8715;DHT22;4394;51.208;8.904;2023-01-13T14:01:21;8.20;99.90
8715;DHT22;4394;51.208;8.904;2023-01-13T14:04:15;8.10;99.90
8715;DHT22;4394;51.208;8.904;2023-01-13T14:07:14;8.10;99.90
8715;DHT22;4394;51.208;8.904;2023-01-13T14:10:08;8.10;99.90
8715;DHT22;4394;51.208;8.904;2023-01-13T14:13:00;8.10;99.90
8715;DHT22;4394;51.208;8.904;2023-01-13T14:15:55;8.20;99.90
8715;DHT22;4394;51.208;8.904;2023-01-13T14:18:45;8.30;99.90
8715;DHT22;4394;51.208;8.904;2023-01-13T14:21:34;8.30;99.90
8715;DHT22;4394;51.208;8.904;2023-01-13T14:24:22;8.40;99.90
8715;DHT22;4394;51.208;8.904;2023-01-13T14:27:16;8.40;99.90
8715;DHT22;4394;51.208;8.904;2023-01-13T14:30:08;8.50;99.90
8715;DHT22;4394;51.208;8.904;2023-01-13T14:32:59;8.50;99.90
8715;DHT22;4394;51.208;8.904;2023-01-13T14:36:05;8.40;99.90
8715;DHT22;4394;51.208;8.904;2023-01-13T14:39:24;8.40;99.90
8715;DHT22;4394;51.208;8.904;2023-01-13T14:42:15;8.40;99.90
8715;DHT22;4394;51.208;8.904;2023-01-13T14:45:21;8.30;99.90
8715;DHT22;4394;51.208;8.904;2023-01-13T14:48:12;8.10;99.90
8715;DHT22;4394;51.208;8.904;2023-01-13T14:51:02;7.90;99.90
8715;DHT22;4394;51.208;8.904;2023-01-13T14:53:52;7.80;99.90
8715;DHT22;4394;51.208;8.904;2023-01-13T14:56:49;7.60;99.90
8715;DHT22;4394;51.208;8.904;2023-01-13T14:59:46;7.50;99.90
8715;DHT22;4394;51.208;8.904;2023-01-13T15:02:40;7.40;99.90
8715;DHT22;4394;51.208;8.904;2023-01-13T15:05:39;7.40;99.90
8715;DHT22;4394;51.208;8.904;2023-01-13T15:08:38;7.40;99.90
8715;DHT22;4394;51.208;8.904;2023-01-13T15:11:27;7.40;99.90
8715;DHT22;4394;51.208;8.904;2023-01-13T15:14:19;7.40;99.90
8715;DHT22;4394;51.208;8.904;2023-01-13T15:17:15;7.40;99.90
8715;DHT22;4394;51.208;8.904;2023-01-13T15:20:08;7.40;99.90
8715;DHT22;4394;51.208;8.904;2023-01-13T15:22:59;7.40;99.90
8715;DHT22;4394;51.208;8.904;2023-01-13T15:25:48;7.40;99.90
8715;DHT22;4394;51.208;8.904;2023-01-13T15:28:37;7.40;99.90
8715;DHT22;4394;51.208;8.904;2023-01-13T15:31:25;7.40;99.90
8715;DHT22;4394;51.208;8.904;2023-01-13T15:34:15;7.40;99.90
8715;DHT22;4394;51.208;8.904;2023-01-13T15:37:03;7.40;99.90
8715;DHT22;4394;51.208;8.904;2023-01-13T15:39:51;7.40;99.90
8715;DHT22;4394;51.208;8.904;2023-01-13T15:42:39;7.40;99.90
8715;DHT22;4394;51.208;8.904;2023-01-13T15:45:45;7.40;99.90
8715;DHT22;4394;51.208;8.904;2023-01-13T15:48:51;7.40;99.90
8715;DHT22;4394;51.208;8.904;2023-01-13T15:51:42;7.40;99.90
8715;DHT22;4394;51.208;8.904;2023-01-13T15:54:30;7.40;99.90
8715;DHT22;4394;51.208;8.904;2023-01-13T15:57:21;7.40;99.90
8715;DHT22;4394;51.208;8.904;2023-01-13T16:00:14;7.40;99.90
8715;DHT22;4394;51.208;8.904;2023-01-13T16:03:03;7.50;99.90
8715;DHT22;4394;51.208;8.904;2023-01-13T16:05:51;7.50;99.90
8715;DHT22;4394;51.208;8.904;2023-01-13T16:08:40;7.60;99.90
8715;DHT22;4394;51.208;8.904;2023-01-13T16:11:28;7.60;99.90
8715;DHT22;4394;51.208;8.904;2023-01-13T16:14:16;7.60;99.90
8715;DHT22;4394;51.208;8.904;2023-01-13T16:17:13;7.60;99.90
8715;DHT22;4394;51.208;8.904;2023-01-13T16:20:01;7.60;99.90
8715;DHT22;4394;51.208;8.904;2023-01-13T16:22:49;7.50;99.90
8715;DHT22;4394;51.208;8.904;2023-01-13T16:25:39;7.50;99.90
8715;DHT22;4394;51.208;8.904;2023-01-13T16:28:29;7.40;99.90
8715;DHT22;4394;51.208;8.904;2023-01-13T16:31:22;7.40;99.90
8715;DHT22;4394;51.208;8.904;2023-01-13T16:34:11;7.40;99.90
8715;DHT22;4394;51.208;8.904;2023-01-13T16:36:59;7.40;99.90
8715;DHT22;4394;51.208;8.904;2023-01-13T16:39:47;7.50;99.90
8715;DHT22;4394;51.208;8.904;2023-01-13T16:42:36;7.50;99.90
8715;DHT22;4394;51.208;8.904;2023-01-13T16:45:24;7.40;99.90
8715;DHT22;4394;51.208;8.904;2023-01-13T16:48:18;7.50;99.90
8715;DHT22;4394;51.208;8.904;2023-01-13T16:51:06;7.50;99.90
8715;DHT22;4394;51.208;8.904;2023-01-13T16:53:54;7.50;99.90
8715;DHT22;4394;51.208;8.904;2023-01-13T16:56:42;7.50;99.90
8715;DHT22;4394;51.208;8.904;2023-01-13T16:59:32;7.40;99.90
8715;DHT22;4394;51.208;8.904;2023-01-13T17:02:20;7.50;99.90
8715;DHT22;4394;51.208;8.904;2023-01-13T17:05:10;7.50;99.90
8715;DHT22;4394;51.208;8.904;2023-01-13T17:07:58;7.40;99.90
8715;DHT22;4394;51.208;8.904;2023-01-13T17:10:46;7.30;99.90
8715;DHT22;4394;51.208;8.904;2023-01-13T17:13:34;7.30;99.90
8715;DHT22;4394;51.208;8.904;2023-01-13T17:16:23;7.30;99.90
8715;DHT22;4394;51.208;8.904;2023-01-13T17:19:12;7.20;99.90
8715;DHT22;4394;51.208;8.904;2023-01-13T17:22:01;7.10;99.90
8715;DHT22;4394;51.208;8.904;2023-01-13T17:24:49;7.10;99.90
8715;DHT22;4394;51.208;8.904;2023-01-13T17:27:37;7.00;99.90
8715;DHT22;4394;51.208;8.904;2023-01-13T17:30:25;7.10;99.90
8715;DHT22;4394;51.208;8.904;2023-01-13T17:33:14;7.00;99.90
8715;DHT22;4394;51.208;8.904;2023-01-13T17:36:03;7.00;99.90
8715;DHT22;4394;51.208;8.904;2023-01-13T17:38:51;6.90;99.90
8715;DHT22;4394;51.208;8.904;2023-01-13T17:41:39;6.80;99.90
8715;DHT22;4394;51.208;8.904;2023-01-13T17:44:27;6.70;99.90
8715;DHT22;4394;51.208;8.904;2023-01-13T17:47:15;6.60;99.90
8715;DHT22;4394;51.208;8.904;2023-01-13T17:50:05;6.60;99.90
8715;DHT22;4394;51.208;8.904;2023-01-13T17:52:53;6.60;99.90
8715;DHT22;4394;51.208;8.904;2023-01-13T17:55:48;6.60;99.90
8715;DHT22;4394;51.208;8.904;2023-01-13T17:58:37;6.60;99.90
8715;DHT22;4394;51.208;8.904;2023-01-13T18:01:27;6.60;99.90
8715;DHT22;4394;51.208;8.904;2023-01-13T18:04:20;6.70;99.90
8715;DHT22;4394;51.208;8.904;2023-01-13T18:07:09;6.70;99.90
8715;DHT22;4394;51.208;8.904;2023-01-13T18:09:58;6.80;99.90
8715;DHT22;4394;51.208;8.904;2023-01-13T18:12:46;6.70;99.90
8715;DHT22;4394;51.208;8.904;2023-01-13T18:15:34;6.80;99.90
8715;DHT22;4394;51.208;8.904;2023-01-13T18:18:22;6.60;99.90
8715;DHT22;4394;51.208;8.904;2023-01-13T18:21:17;6.80;99.90
8715;DHT22;4394;51.208;8.904;2023-01-13T18:24:36;6.80;99.90
8715;DHT22;4394;51.208;8.904;2023-01-13T18:27:50;6.80;99.90
8715;DHT22;4394;51.208;8.904;2023-01-13T18:30:38;6.70;99.90
8715;DHT22;4394;51.208;8.904;2023-01-13T18:33:26;6.70;99.90
8715;DHT22;4394;51.208;8.904;2023-01-13T18:36:14;6.80;99.90
8715;DHT22;4394;51.208;8.904;2023-01-13T18:39:02;6.80;99.90
8715;DHT22;4394;51.208;8.904;2023-01-13T18:41:51;6.90;99.90
8715;DHT22;4394;51.208;8.904;2023-01-13T18:44:57;6.90;99.90
8715;DHT22;4394;51.208;8.904;2023-01-13T18:47:45;6.90;99.90
8715;DHT22;4394;51.208;8.904;2023-01-13T18:50:33;6.90;99.90
8715;DHT22;4394;51.208;8.904;2023-01-13T18:53:22;7.00;99.90
8715;DHT22;4394;51.208;8.904;2023-01-13T18:56:11;6.90;99.90
8715;DHT22;4394;51.208;8.904;2023-01-13T18:59:02;7.00;99.90
8715;DHT22;4394;51.208;8.904;2023-01-13T19:01:50;7.00;99.90
8715;DHT22;4394;51.208;8.904;2023-01-13T19:04:39;7.00;99.90
8715;DHT22;4394;51.208;8.904;2023-01-13T19:07:27;7.10;99.90
8715;DHT22;4394;51.208;8.904;2023-01-13T19:10:17;7.10;99.90
8715;DHT22;4394;51.208;8.904;2023-01-13T19:13:05;7.10;99.90
8715;DHT22;4394;51.208;8.904;2023-01-13T19:15:55;7.10;99.90
8715;DHT22;4394;51.208;8.904;2023-01-13T19:18:43;7.10;99.90